Mason, New Hampshire
Current Conditions -  °F | °C
As of 3:51 AM on Wednesday 26 Nov 2014 (Local Time) from KASH Reporting Station
Clear Clear  
Wind Chill: 40°   Ceiling: Unl
Heat Index: 40°   Visibility: 10mi
Dew Point: 31°   Wind: 0mph
Humidity: 71%   Direction: NA
Pressure: 30.2"   Gusts: NA
Location:  42.7496°N, 71.7606°W
Report Text: KASH 260851Z AUTO 00000KT 10SM CLR 04/M01 A3020 RMK AO2 51019 T00441005 SLP478
Loading
Personal Weather Stations






























Interactive Weather Map New forecast layout! Learn more

10-Day Weather Forecast

Advertisements
Track Severe Weather on mobile